Time;durP1;ratioP1;P1;durP2;ratioP2;P2;SDS_P1;SDS_P2;PMS_P1;PMS_P2;Temp;Humidity;BMP_temperature;BMP_pressure;BME280_temperature;BME280_humidity;BME280_pressure;Samples;Min_cycle;Max_cycle;Signal;HPM_P1;HPM_P2
2022/07/29 00:01:02;;;;;;;4.07;3.03;;;;;;;22.43;51.37;98709.91;4483709;31;20142;-69
2022/07/29 00:03:29;;;;;;;4.65;2.92;;;;;;;22.41;51.54;98714.66;4484102;31;20089;-69
2022/07/29 00:05:56;;;;;;;5.12;3.45;;;;;;;22.41;51.63;98714.66;4483817;32;20118;-69
2022/07/29 00:08:23;;;;;;;9.90;3.50;;;;;;;22.44;51.58;98716.88;4483790;31;20085;-69
2022/07/29 00:10:51;;;;;;;5.90;3.35;;;;;;;22.44;51.69;98714.22;4483793;32;20101;-69
2022/07/29 00:13:18;;;;;;;3.37;3.03;;;;;;;22.41;51.79;98724.53;4483696;32;20100;-69
2022/07/29 00:15:59;;;;;;;5.87;3.50;;;;;;;22.36;52.00;98722.47;4483728;31;20096;-69
2022/07/29 00:18:31;;;;;;;5.55;2.95;;;;;;;22.36;52.07;98719.78;4483859;32;20084;-69
2022/07/29 00:20:59;;;;;;;3.97;2.95;;;;;;;22.37;52.13;98725.97;4483683;31;20088;-69
2022/07/29 00:23:26;;;;;;;4.55;3.53;;;;;;;22.35;52.19;98720.00;4483610;31;20158;-69
2022/07/29 00:25:53;;;;;;;4.30;3.35;;;;;;;22.37;52.33;98717.97;4483426;31;20147;-69
2022/07/29 00:28:21;;;;;;;5.80;3.30;;;;;;;22.34;52.37;98724.53;4483716;31;20096;-69
2022/07/29 00:30:48;;;;;;;4.45;3.33;;;;;;;22.30;52.44;98724.12;4483516;31;20089;-69
2022/07/29 00:33:15;;;;;;;4.40;3.30;;;;;;;22.24;52.71;98718.81;4483478;31;20430;-69
2022/07/29 00:35:45;;;;;;;4.55;3.37;;;;;;;22.27;52.75;98723.72;4483716;31;20160;-69
2022/07/29 00:38:15;;;;;;;7.30;3.50;;;;;;;22.30;52.70;98723.28;4483488;31;20111;-69
2022/07/29 00:40:43;;;;;;;5.12;3.62;;;;;;;22.28;52.83;98725.38;4485476;31;20114;-69
2022/07/29 00:43:11;;;;;;;6.03;3.58;;;;;;;22.17;53.22;98723.41;4488817;31;20474;-69
2022/07/29 00:45:39;;;;;;;4.32;3.60;;;;;;;22.20;53.26;98718.44;4488504;31;20118;-69
2022/07/29 00:48:08;;;;;;;8.77;3.92;;;;;;;22.22;53.29;98721.69;4488526;31;20613;-69
2022/07/29 00:50:36;;;;;;;5.18;3.53;;;;;;;22.19;53.43;98721.31;4488384;31;20184;-69
2022/07/29 00:53:06;;;;;;;4.12;3.35;;;;;;;22.15;53.56;98715.59;4488329;31;20104;-69
2022/07/29 00:55:34;;;;;;;4.00;3.53;;;;;;;22.19;53.49;98722.13;4488353;31;20145;-69
2022/07/29 00:58:01;;;;;;;5.25;3.42;;;;;;;22.23;53.37;98727.87;4488435;31;20115;-69
2022/07/29 01:00:29;;;;;;;5.15;3.53;;;;;;;22.14;53.66;98730.78;4488379;31;20572;-69
2022/07/29 01:02:57;;;;;;;4.10;3.60;;;;;;;22.14;53.81;98714.75;4488309;31;20092;-69
2022/07/29 01:05:26;;;;;;;4.75;3.47;;;;;;;22.14;53.83;98714.75;4488432;31;20508;-69
2022/07/29 01:08:15;;;;;;;9.43;3.45;;;;;;;22.12;53.83;98716.84;4488235;31;20111;-69
2022/07/29 01:10:44;;;;;;;8.80;3.55;;;;;;;22.09;53.92;98711.94;4488179;31;20602;-69
2022/07/29 01:13:11;;;;;;;5.50;3.30;;;;;;;22.09;53.99;98709.25;4486868;32;20100;-69
2022/07/29 01:15:46;;;;;;;7.30;3.80;;;;;;;22.09;53.97;98709.25;4488330;31;20537;-69
2022/07/29 01:18:25;;;;;;;7.30;3.30;;;;;;;22.09;54.01;98708.44;4486977;32;20551;-69
2022/07/29 01:21:18;;;;;;;4.50;3.53;;;;;;;22.06;54.15;98709.69;4486942;32;20119;-69
2022/07/29 01:24:04;;;;;;;5.40;4.05;;;;;;;22.02;54.19;98713.81;4488033;31;20497;-69
2022/07/29 01:26:56;;;;;;;4.03;3.62;;;;;;;22.03;54.20;98710.12;4488081;32;20780;-69
2022/07/29 01:29:29;;;;;;;5.12;3.47;;;;;;;22.00;54.23;98707.88;4483503;32;112950;-69
2022/07/29 01:32:19;;;;;;;5.82;3.37;;;;;;;21.93;54.48;98709.75;4488073;32;20111;-69
2022/07/29 01:35:09;;;;;;;5.80;3.17;;;;;;;21.89;54.56;98709.38;4487651;31;20221;-69
2022/07/29 01:37:49;;;;;;;5.85;3.70;;;;;;;21.89;54.49;98708.53;4487849;31;20126;-69
2022/07/29 01:40:24;;;;;;;9.20;3.62;;;;;;;21.91;54.57;98709.16;4487818;31;20114;-69
2022/07/29 01:42:55;;;;;;;4.37;3.35;;;;;;;21.91;54.59;98709.16;4486663;32;20111;-69
2022/07/29 01:45:41;;;;;;;4.78;3.58;;;;;;;21.87;54.67;98713.25;4487807;31;20548;-69
2022/07/29 01:48:12;;;;;;;6.22;4.00;;;;;;;21.90;54.65;98707.50;4486429;32;20153;-69
2022/07/29 01:50:47;;;;;;;9.82;3.45;;;;;;;21.95;54.50;98710.34;4487677;31;20092;-69
2022/07/29 01:53:22;;;;;;;8.70;4.07;;;;;;;21.85;54.87;98704.63;4482540;32;20085;-69
2022/07/29 01:55:49;;;;;;;5.07;3.45;;;;;;;21.86;54.85;98698.28;4483514;32;20101;-69
2022/07/29 01:58:18;;;;;;;7.22;3.78;;;;;;;21.80;54.99;98698.13;4484748;31;20121;-69
2022/07/29 02:00:46;;;;;;;7.12;3.22;;;;;;;21.80;55.05;98700.78;4476034;32;20108;-69
2022/07/29 02:03:17;;;;;;;4.40;3.67;;;;;;;21.82;55.13;98694.41;4468929;32;20382;-69
2022/07/29 02:05:45;;;;;;;3.78;3.28;;;;;;;21.78;55.27;98700.16;4475868;32;20097;-69
2022/07/29 02:08:13;;;;;;;5.57;3.40;;;;;;;21.78;55.29;98702.81;4483502;32;20100;-69
2022/07/29 02:10:42;;;;;;;3.92;3.45;;;;;;;21.73;55.49;98707.97;4483620;32;20088;-69
2022/07/29 02:13:11;;;;;;;8.95;3.85;;;;;;;21.71;55.62;98703.88;4483406;32;20442;-69
2022/07/29 02:15:39;;;;;;;4.57;3.42;;;;;;;21.73;55.61;98697.31;4483548;32;20169;-69
2022/07/29 02:18:12;;;;;;;6.15;3.87;;;;;;;21.69;55.80;98695.28;4484577;31;20100;-69
2022/07/29 02:20:44;;;;;;;4.80;3.70;;;;;;;21.69;55.81;98698.75;4484680;31;20564;-69
2022/07/29 02:23:12;;;;;;;6.03;3.58;;;;;;;21.68;55.85;98698.97;4483308;32;20099;-69
2022/07/29 02:25:41;;;;;;;5.55;4.05;;;;;;;21.64;56.04;98693.25;4483113;32;20366;-69
2022/07/29 02:28:09;;;;;;;4.87;3.37;;;;;;;21.64;56.16;98695.13;4484657;31;20127;-69
2022/07/29 02:30:39;;;;;;;5.35;3.92;;;;;;;21.59;56.42;98695.72;4484622;32;20420;-69
2022/07/29 02:33:09;;;;;;;9.43;3.90;;;;;;;21.54;56.62;98698.19;4483276;32;20080;-69
2022/07/29 02:35:37;;;;;;;6.18;3.85;;;;;;;21.56;56.68;98688.13;4474684;32;20124;-69
2022/07/29 02:40:50;;;;;;;5.45;4.00;;;;;;;21.66;56.46;98685.03;4469036;32;20138;-69
2022/07/29 02:43:19;;;;;;;6.15;4.20;;;;;;;21.58;56.76;98692.25;4468762;32;20093;-69
2022/07/29 02:45:47;;;;;;;5.85;4.03;;;;;;;21.57;56.74;98687.12;4467340;32;20098;-69
2022/07/29 02:48:23;;;;;;;4.72;3.78;;;;;;;21.56;56.82;98694.31;4467540;32;20615;-69
2022/07/29 02:50:53;;;;;;;7.55;3.80;;;;;;;21.52;57.00;98686.94;4467602;32;20111;-69
2022/07/29 02:53:24;;;;;;;5.45;4.03;;;;;;;21.55;57.08;98684.66;4467162;32;20653;-69
2022/07/29 02:56:13;;;;;;;7.80;3.90;;;;;;;21.53;57.03;98685.88;4468524;32;20080;-69
2022/07/29 02:58:45;;;;;;;7.43;4.37;;;;;;;21.51;57.18;98687.97;4468730;32;20514;-69
2022/07/29 03:01:16;;;;;;;5.12;3.97;;;;;;;21.53;57.29;98692.06;4477681;32;20532;-69
2022/07/29 03:03:49;;;;;;;4.57;3.92;;;;;;;21.45;57.51;98685.09;4482770;32;20092;-69
2022/07/29 03:06:17;;;;;;;4.87;4.10;;;;;;;21.51;57.41;98688.78;4472345;32;20109;-69
2022/07/29 03:09:06;;;;;;;4.15;3.65;;;;;;;21.53;57.33;98685.88;4467482;32;20088;-69
2022/07/29 03:11:41;;;;;;;4.80;3.87;;;;;;;21.43;57.65;98689.78;4467523;32;20096;-69
2022/07/29 03:14:18;;;;;;;6.25;4.10;;;;;;;21.46;57.59;98688.56;4468479;32;20119;-69
2022/07/29 03:16:47;;;;;;;5.57;4.32;;;;;;;21.45;57.59;98694.91;4468454;32;20155;-69
2022/07/29 03:19:14;;;;;;;6.97;3.95;;;;;;;21.43;57.66;98691.66;4467196;32;20134;-69
2022/07/29 03:21:41;;;;;;;4.87;4.30;;;;;;;21.46;57.62;98685.91;4467248;32;20131;-69
2022/07/29 03:24:09;;;;;;;19.65;5.22;;;;;;;21.43;57.77;98687.12;4468332;32;20474;-69
2022/07/29 03:26:37;;;;;;;8.23;4.20;;;;;;;21.44;58.01;98688.78;4468178;32;20105;-69
2022/07/29 03:29:04;;;;;;;7.25;4.50;;;;;;;21.41;57.92;98699.03;4467137;32;20143;-69
2022/07/29 03:31:32;;;;;;;5.03;4.00;;;;;;;21.36;58.07;98690.84;4468343;32;20153;-69
2022/07/29 03:34:00;;;;;;;5.18;4.20;;;;;;;21.40;57.93;98692.88;4468511;32;20164;-69
2022/07/29 03:36:27;;;;;;;4.97;4.05;;;;;;;21.47;57.69;98694.69;4468290;32;20443;-69
2022/07/29 03:38:54;;;;;;;4.25;3.65;;;;;;;21.47;57.83;98702.69;4468537;32;20707;-69
2022/07/29 03:41:22;;;;;;;7.65;3.80;;;;;;;21.49;57.65;98701.47;4467182;32;20092;-69
2022/07/29 03:43:51;;;;;;;5.12;3.95;;;;;;;21.46;57.67;98696.56;4467177;32;20525;-69
2022/07/29 03:46:20;;;;;;;5.45;4.12;;;;;;;21.49;57.55;98695.31;4468329;32;20158;-69
2022/07/29 03:48:51;;;;;;;10.30;4.25;;;;;;;21.51;57.54;98698.63;4466929;32;20160;-69
2022/07/29 03:51:18;;;;;;;7.03;3.80;;;;;;;21.45;57.56;98694.91;4467250;32;20114;-69
2022/07/29 03:54:02;;;;;;;5.37;3.55;;;;;;;21.43;57.57;98696.97;4466797;32;20497;-69
2022/07/29 03:56:39;;;;;;;7.03;4.22;;;;;;;21.49;57.45;98700.66;4467017;32;20085;-69
2022/07/29 03:59:07;;;;;;;8.90;4.50;;;;;;;21.47;57.49;98689.37;4467036;32;20101;-69
2022/07/29 04:01:35;;;;;;;10.60;4.05;;;;;;;21.48;57.38;98696.34;4479241;32;20163;-69
2022/07/29 04:04:04;;;;;;;8.70;3.90;;;;;;;21.52;57.35;98702.94;4483813;31;20092;-69
2022/07/29 04:06:39;;;;;;;6.82;4.40;;;;;;;21.54;57.28;98701.69;4483669;31;20089;-69
2022/07/29 04:09:06;;;;;;;5.12;4.35;;;;;;;21.52;57.39;98705.59;4483039;31;20088;-69
2022/07/29 04:11:37;;;;;;;16.02;4.30;;;;;;;21.51;57.32;98699.44;4483526;31;20111;-69
2022/07/29 04:14:24;;;;;;;5.62;4.00;;;;;;;21.57;57.18;98706.59;4483412;32;20168;-69
2022/07/29 04:16:52;;;;;;;8.93;4.10;;;;;;;21.65;56.98;98699.41;4483383;32;20093;-69
2022/07/29 04:19:20;;;;;;;6.82;3.87;;;;;;;21.64;56.83;98706.59;4483672;31;20160;-69
2022/07/29 04:21:47;;;;;;;6.03;4.25;;;;;;;21.58;57.03;98705.56;4483678;31;20722;-69
2022/07/29 04:24:14;;;;;;;5.72;3.72;;;;;;;21.64;56.84;98709.25;4483580;32;20096;-69
2022/07/29 04:26:43;;;;;;;5.60;4.07;;;;;;;21.70;56.65;98705.75;4483163;32;20855;-69
2022/07/29 04:29:11;;;;;;;6.45;3.95;;;;;;;21.77;56.43;98706.53;4483728;31;20153;-69
2022/07/29 04:31:38;;;;;;;4.40;3.70;;;;;;;21.87;56.13;98702.59;4483501;31;20106;-69
2022/07/29 04:34:06;;;;;;;8.50;4.45;;;;;;;21.94;55.77;98708.72;4483521;32;20145;-69
2022/07/29 04:36:33;;;;;;;9.05;4.10;;;;;;;22.01;55.69;98709.50;4479262;32;20116;-69
2022/07/29 04:39:01;;;;;;;5.40;3.70;;;;;;;22.09;55.47;98706.59;4481347;31;20093;-69
2022/07/29 04:41:28;;;;;;;7.05;4.20;;;;;;;22.16;55.20;98703.88;4481647;31;20481;-69
2022/07/29 04:44:00;;;;;;;5.40;3.50;;;;;;;22.23;54.99;98712.66;4480018;31;20163;-69
2022/07/29 04:46:30;;;;;;;6.28;4.10;;;;;;;22.32;54.69;98715.94;4479586;32;20088;-69
2022/07/29 04:48:57;;;;;;;5.80;3.45;;;;;;;22.49;54.30;98717.03;4480103;32;20126;-69
2022/07/29 04:51:25;;;;;;;5.75;4.03;;;;;;;22.49;54.00;98706.37;4482562;32;20163;-69
2022/07/29 04:53:52;;;;;;;5.18;4.40;;;;;;;22.66;53.63;98713.84;4482554;31;20600;-69
2022/07/29 04:56:19;;;;;;;6.35;3.95;;;;;;;22.97;53.04;98706.84;4481519;31;20112;-69
2022/07/29 04:58:47;;;;;;;8.63;3.83;;;;;;;23.19;52.46;98702.75;4479236;31;20156;-69
2022/07/29 05:01:14;;;;;;;8.05;4.87;;;;;;;23.26;51.83;98704.53;4481459;32;20581;-69
2022/07/29 05:03:42;;;;;;;8.27;4.15;;;;;;;23.36;51.83;98704.81;4481867;32;20180;-69
2022/07/29 05:06:09;;;;;;;6.87;5.15;;;;;;;23.47;51.77;98711.31;4481499;31;20116;-69
2022/07/29 05:08:36;;;;;;;5.15;4.18;;;;;;;23.42;51.68;98711.16;4480154;32;20120;-69
2022/07/29 05:11:04;;;;;;;6.60;3.83;;;;;;;23.40;51.94;98711.38;4476102;32;20118;-69
2022/07/29 05:13:39;;;;;;;8.07;4.05;;;;;;;23.45;51.52;98714.22;4478157;31;20120;-70
2022/07/29 05:16:13;;;;;;;5.43;3.97;;;;;;;23.41;51.47;98712.19;4480403;32;20122;-69
2022/07/29 05:18:41;;;;;;;6.07;4.30;;;;;;;23.46;51.62;98710.47;4480967;31;20147;-69
2022/07/29 05:21:09;;;;;;;4.70;4.20;;;;;;;23.47;51.60;98708.62;4480076;31;20118;-69
2022/07/29 05:23:36;;;;;;;5.45;4.25;;;;;;;23.58;51.17;98701.72;4478955;31;20089;-70
2022/07/29 05:26:03;;;;;;;5.95;4.28;;;;;;;23.58;51.23;98712.44;4479549;31;20124;-70
2022/07/29 05:28:34;;;;;;;5.47;4.03;;;;;;;23.75;51.12;98710.75;4482984;32;20351;-69
2022/07/29 05:31:02;;;;;;;10.13;4.10;;;;;;;23.87;50.58;98719.69;4482691;32;20092;-69
2022/07/29 05:33:29;;;;;;;5.43;4.22;;;;;;;23.88;50.44;98718.66;4482081;31;20383;-69
2022/07/29 05:36:06;;;;;;;5.32;4.20;;;;;;;24.07;50.08;98715.94;4481168;32;20127;-69
2022/07/29 05:38:35;;;;;;;15.77;3.97;;;;;;;24.19;49.73;98714.13;4483171;32;20092;-69
2022/07/29 05:41:04;;;;;;;6.60;3.70;;;;;;;24.25;49.69;98717.78;4482252;31;20239;-69
2022/07/29 05:43:31;;;;;;;5.57;4.07;;;;;;;24.29;49.63;98718.97;4480542;32;20129;-70
2022/07/29 05:45:59;;;;;;;12.82;4.03;;;;;;;24.33;49.76;98719.31;4482258;32;20522;-69
2022/07/29 05:48:26;;;;;;;8.63;4.30;;;;;;;24.31;49.67;98721.41;4482961;32;20508;-69
2022/07/29 05:50:54;;;;;;;7.07;4.45;;;;;;;24.39;49.84;98724.59;4480892;31;20113;-69
2022/07/29 05:53:22;;;;;;;7.55;4.12;;;;;;;24.42;49.65;98734.00;4482479;32;20167;-69
2022/07/29 05:55:49;;;;;;;5.80;4.03;;;;;;;24.21;50.09;98721.94;4482971;32;20161;-69
2022/07/29 05:58:17;;;;;;;9.38;4.03;;;;;;;24.25;50.10;98718.59;4481581;32;20489;-69
2022/07/29 06:00:44;;;;;;;8.70;4.12;;;;;;;24.47;49.84;98728.78;4482513;31;20123;-69
2022/07/29 06:03:12;;;;;;;11.27;4.95;;;;;;;24.38;49.96;98722.13;4484860;31;20107;-69
2022/07/29 06:05:39;;;;;;;6.93;3.87;;;;;;;24.48;49.83;98722.38;4481049;32;20096;-69
2022/07/29 06:08:07;;;;;;;14.13;4.62;;;;;;;24.62;49.65;98729.22;4483749;31;22065;-70
2022/07/29 06:10:35;;;;;;;8.30;4.18;;;;;;;24.87;49.17;98725.50;4482975;31;20450;-69
2022/07/29 06:13:02;;;;;;;8.48;4.15;;;;;;;24.98;49.20;98727.41;4483006;31;20138;-69
2022/07/29 06:15:29;;;;;;;6.43;3.87;;;;;;;25.15;48.71;98724.84;4483449;31;20101;-69
2022/07/29 06:17:57;;;;;;;8.25;4.12;;;;;;;25.20;48.27;98728.69;4483324;31;20097;-69
2022/07/29 06:20:29;;;;;;;9.50;3.95;;;;;;;25.22;48.38;98735.44;4481287;31;20088;-69
2022/07/29 06:22:58;;;;;;;6.40;3.83;;;;;;;25.50;47.99;98724.03;4482378;32;20476;-69
2022/07/29 06:25:30;;;;;;;5.90;4.10;;;;;;;25.48;47.58;98727.97;4482161;31;20157;-69
2022/07/29 06:27:58;;;;;;;8.13;4.10;;;;;;;25.42;47.70;98729.75;4478546;32;20490;-69
2022/07/29 06:30:25;;;;;;;5.60;3.72;;;;;;;25.38;48.18;98730.47;4482426;31;20100;-69
2022/07/29 06:32:52;;;;;;;7.10;4.00;;;;;;;25.59;47.67;98732.53;4483315;32;21098;-69
2022/07/29 06:35:20;;;;;;;7.82;3.87;;;;;;;25.52;47.53;98733.72;4483455;32;20101;-69
2022/07/29 06:38:07;;;;;;;8.38;3.75;;;;;;;25.55;47.77;98734.03;4481278;32;20638;-69
2022/07/29 06:41:00;;;;;;;7.43;3.97;;;;;;;25.68;47.68;98743.72;4477295;31;20656;-69
2022/07/29 06:43:37;;;;;;;7.80;4.50;;;;;;;25.67;47.17;98750.13;4477386;32;20104;-69
2022/07/29 06:46:18;;;;;;;12.63;4.32;;;;;;;25.52;47.46;98742.56;4476742;32;20151;-69
2022/07/29 06:48:47;;;;;;;6.95;4.22;;;;;;;25.40;47.66;98742.56;4483756;31;20157;-69
2022/07/29 06:51:16;;;;;;;7.28;4.00;;;;;;;25.46;47.44;98746.19;4481389;31;20172;-69
2022/07/29 06:53:51;;;;;;;6.68;4.47;;;;;;;25.53;47.32;98736.16;4480152;31;20107;-69
2022/07/29 06:56:34;;;;;;;6.28;4.30;;;;;;;25.55;47.15;98743.97;4483178;31;20114;-69
2022/07/29 06:59:07;;;;;;;7.55;4.35;;;;;;;25.50;47.02;98744.66;4483427;31;20093;-69
2022/07/29 07:01:35;;;;;;;6.82;4.37;;;;;;;25.64;46.93;98751.41;4482274;32;20148;-69
2022/07/29 07:04:03;;;;;;;7.65;4.20;;;;;;;25.87;46.49;98749.72;4480515;31;20160;-69
2022/07/29 07:06:30;;;;;;;6.55;3.83;;;;;;;25.86;46.43;98730.13;4480893;32;20107;-69
2022/07/29 07:08:57;;;;;;;6.30;4.28;;;;;;;25.71;46.59;98742.41;4483947;31;20366;-69
2022/07/29 07:11:24;;;;;;;7.25;4.25;;;;;;;25.74;46.60;98747.28;4481330;31;20092;-69
2022/07/29 07:13:52;;;;;;;8.43;4.30;;;;;;;25.79;46.52;98750.91;4481574;31;20097;-69
2022/07/29 07:16:22;;;;;;;8.02;4.22;;;;;;;26.03;46.41;98746.31;4479582;31;20154;-69
2022/07/29 07:18:49;;;;;;;8.38;4.25;;;;;;;26.20;46.16;98746.38;4477389;32;20583;-69
2022/07/29 07:21:17;;;;;;;5.60;4.30;;;;;;;26.45;45.22;98749.75;4478756;32;20145;-69
2022/07/29 07:23:46;;;;;;;6.62;3.87;;;;;;;26.51;44.80;98738.88;4479261;31;20676;-69
2022/07/29 07:26:13;;;;;;;5.30;4.03;;;;;;;26.54;44.79;98741.09;4478300;31;20111;-69
2022/07/29 07:28:41;;;;;;;11.93;4.32;;;;;;;26.61;44.70;98740.91;4480565;32;20421;-69
2022/07/29 07:31:09;;;;;;;9.18;4.43;;;;;;;26.67;44.61;98749.91;4467785;31;20137;-69
2022/07/29 07:33:36;;;;;;;7.25;4.65;;;;;;;26.66;44.55;98749.13;4475009;31;20106;-69
2022/07/29 07:36:03;;;;;;;8.43;4.05;;;;;;;26.94;44.02;98747.41;4480138;32;20108;-69
2022/07/29 07:38:31;;;;;;;6.82;4.30;;;;;;;27.19;43.68;98746.16;4481884;32;20123;-69
2022/07/29 07:40:58;;;;;;;11.15;4.97;;;;;;;27.26;43.40;98741.44;4480857;31;20130;-69
2022/07/29 07:43:25;;;;;;;7.43;4.35;;;;;;;27.31;43.13;98733.41;4481881;32;20139;-69
2022/07/29 07:45:53;;;;;;;8.02;4.75;;;;;;;27.06;43.32;98740.06;4482405;31;20088;-69
2022/07/29 07:48:20;;;;;;;8.63;4.75;;;;;;;27.32;43.59;98735.09;4482438;31;20127;-69
2022/07/29 07:50:49;;;;;;;14.55;4.60;;;;;;;27.53;42.80;98728.09;4477516;32;20527;-69
2022/07/29 07:53:16;;;;;;;12.13;4.95;;;;;;;27.60;42.66;98733.31;4482662;31;20167;-69
2022/07/29 07:55:43;;;;;;;8.32;4.40;;;;;;;27.75;42.40;98741.59;4480534;31;20104;-69
2022/07/29 07:58:30;;;;;;;5.50;4.53;;;;;;;27.99;42.31;98743.22;4481191;32;20108;-69
2022/07/29 08:00:58;;;;;;;9.43;4.75;;;;;;;28.12;41.41;98745.53;4480286;32;20550;-69
2022/07/29 08:03:25;;;;;;;11.23;4.22;;;;;;;28.28;41.48;98743.81;4476152;31;20150;-69
2022/07/29 08:05:54;;;;;;;9.93;4.22;;;;;;;28.18;41.30;98739.12;4480240;32;20496;-69
2022/07/29 08:08:21;;;;;;;9.55;4.90;;;;;;;27.90;41.62;98738.25;4480705;32;20126;-69
2022/07/29 08:10:58;;;;;;;14.30;4.30;;;;;;;27.85;41.22;98732.81;4482061;32;20115;-69
2022/07/29 08:13:31;;;;;;;7.67;4.67;;;;;;;27.97;41.17;98733.50;4477609;31;20092;-69
2022/07/29 08:16:11;;;;;;;6.20;4.50;;;;;;;28.10;41.36;98739.56;4482461;31;20116;-69
2022/07/29 08:18:39;;;;;;;31.33;6.18;;;;;;;28.18;41.13;98738.31;4478052;32;20088;-69
2022/07/29 08:21:07;;;;;;;8.38;4.78;;;;;;;28.25;40.49;98742.47;4480423;32;20539;-69
2022/07/29 08:23:45;;;;;;;6.10;4.53;;;;;;;28.42;40.52;98747.75;4481132;31;20104;-69
2022/07/29 08:26:18;;;;;;;9.32;5.28;;;;;;;28.33;39.58;98741.19;4482173;32;20151;-69
2022/07/29 08:28:48;;;;;;;4.53;4.00;;;;;;;28.68;40.83;98742.59;4482441;31;20092;-69
2022/07/29 08:31:16;;;;;;;8.80;4.40;;;;;;;29.06;40.16;98742.63;4481254;32;20101;-69
2022/07/29 08:33:43;;;;;;;4.28;3.87;;;;;;;29.09;38.57;98745.63;4479287;32;20176;-69
2022/07/29 08:36:12;;;;;;;8.57;4.32;;;;;;;29.16;38.16;98740.81;4480376;31;20175;-69
2022/07/29 08:38:40;;;;;;;6.37;4.97;;;;;;;29.41;38.78;98738.56;4478938;31;20088;-69
2022/07/29 08:41:07;;;;;;;5.85;4.25;;;;;;;29.51;38.14;98746.72;4478797;32;20215;-69
2022/07/29 08:43:37;;;;;;;6.18;4.10;;;;;;;29.37;37.73;98744.50;4477301;31;20647;-69
2022/07/29 08:46:04;;;;;;;6.85;4.40;;;;;;;29.47;38.09;98738.31;4471345;32;20439;-69
2022/07/29 08:48:32;;;;;;;5.28;4.45;;;;;;;29.61;37.70;98743.25;4477659;32;20464;-69
2022/07/29 08:51:00;;;;;;;6.50;4.25;;;;;;;29.48;37.81;98739.12;4478390;31;20468;-69
2022/07/29 08:53:28;;;;;;;6.82;3.92;;;;;;;29.54;37.47;98735.41;4480063;31;20216;-69
2022/07/29 08:55:57;;;;;;;5.62;3.92;;;;;;;29.65;37.19;98741.66;4479989;32;20640;-69
2022/07/29 08:58:25;;;;;;;8.25;4.18;;;;;;;29.68;38.10;98733.84;4478384;32;20130;-69
2022/07/29 09:00:54;;;;;;;9.20;4.18;;;;;;;30.13;36.68;98726.19;4478752;32;20093;-69
2022/07/29 09:03:29;;;;;;;6.32;4.22;;;;;;;30.14;35.50;98730.50;4481941;32;20104;-69
2022/07/29 09:05:58;;;;;;;7.55;4.15;;;;;;;30.12;35.98;98735.37;4485411;31;20089;-69
2022/07/29 09:08:26;;;;;;;7.72;4.37;;;;;;;29.98;36.60;98742.34;4481562;31;20171;-69
2022/07/29 09:10:55;;;;;;;5.65;4.28;;;;;;;29.90;35.71;98740.97;4483503;32;20080;-69
2022/07/29 09:13:22;;;;;;;4.87;4.37;;;;;;;30.15;36.31;98737.53;4476797;31;20462;-69
2022/07/29 09:15:50;;;;;;;6.95;5.20;;;;;;;30.35;34.46;98735.94;4479333;32;20112;-69
2022/07/29 09:18:44;;;;;;;12.75;5.30;;;;;;;30.23;34.69;98733.50;4479740;31;20127;-69
2022/07/29 09:24:01;;;;;;;12.82;6.28;;;;;;;30.23;35.39;98726.19;4482489;31;20636;-69
2022/07/29 09:26:32;;;;;;;9.25;5.32;;;;;;;30.40;35.00;98722.47;4482377;31;20108;-69
2022/07/29 09:29:00;;;;;;;15.68;5.70;;;;;;;30.61;34.02;98720.59;4481178;31;20100;-69
2022/07/29 09:31:35;;;;;;;10.20;5.93;;;;;;;30.71;34.03;98722.50;4480926;32;20118;-69
2022/07/29 09:34:04;;;;;;;11.20;4.68;;;;;;;30.78;34.47;98723.00;4480159;31;20099;-69
2022/07/29 09:36:38;;;;;;;15.90;6.40;;;;;;;30.84;32.66;98713.00;4477369;32;20544;-69
2022/07/29 09:39:06;;;;;;;14.68;3.95;;;;;;;30.90;33.12;98723.56;4479092;31;20111;-69
2022/07/29 09:41:55;;;;;;;7.93;4.10;;;;;;;30.95;32.95;98715.44;4477792;31;20096;-69
2022/07/29 09:44:23;;;;;;;8.70;5.03;;;;;;;30.93;33.51;98714.06;4478466;32;20930;-69
2022/07/29 09:46:54;;;;;;;14.02;5.18;;;;;;;30.93;34.09;98714.91;4475930;31;20108;-69
2022/07/29 09:49:22;;;;;;;8.10;4.05;;;;;;;31.06;33.27;98707.34;4477011;32;20084;-69
2022/07/29 09:52:20;;;;;;;8.35;3.80;;;;;;;31.24;31.67;98714.88;4475334;32;20160;-69
2022/07/29 09:54:47;;;;;;;9.05;4.55;;;;;;;31.56;32.45;98704.78;4407596;32;20217;-69
2022/07/29 09:57:28;;;;;;;9.05;4.20;;;;;;;31.49;32.08;98695.03;4412808;32;20117;-70
2022/07/29 10:00:00;;;;;;;9.10;3.80;;;;;;;31.73;33.06;98701.72;4415456;32;20183;-70
2022/07/29 10:02:40;;;;;;;8.82;3.50;;;;;;;32.14;30.84;98702.34;4413891;32;20105;-70
2022/07/29 10:05:27;;;;;;;6.45;4.03;;;;;;;31.92;31.16;98697.31;4416488;32;20130;-70
2022/07/29 10:08:03;;;;;;;3.87;3.05;;;;;;;31.75;30.61;98702.25;4412687;32;20113;-69
2022/07/29 10:10:33;;;;;;;8.77;3.80;;;;;;;31.68;30.69;98697.16;4404203;32;20200;-70
2022/07/29 10:13:03;;;;;;;7.85;3.83;;;;;;;31.75;31.09;98697.66;4415298;32;20126;-70
2022/07/29 10:15:40;;;;;;;6.12;3.42;;;;;;;32.01;32.15;98692.91;4414975;32;20388;-69
2022/07/29 10:18:08;;;;;;;5.60;3.28;;;;;;;32.37;31.62;98700.84;4415008;32;20131;-70
2022/07/29 10:20:36;;;;;;;7.12;3.90;;;;;;;32.74;30.99;98697.87;4416988;32;20105;-72
2022/07/29 10:23:04;;;;;;;20.37;4.30;;;;;;;32.70;29.06;98690.31;4414625;32;20818;-73
2022/07/29 10:25:32;;;;;;;3.60;3.10;;;;;;;32.66;28.81;98689.25;4416246;32;20094;-71
2022/07/29 10:27:59;;;;;;;5.53;3.67;;;;;;;33.25;29.50;98694.66;4417513;32;20906;-71
2022/07/29 10:30:27;;;;;;;7.00;4.55;;;;;;;32.91;29.02;98695.53;4427566;32;20108;-71
2022/07/29 10:33:06;;;;;;;7.70;3.33;;;;;;;32.97;28.96;98688.94;4478734;31;20092;-72
2022/07/29 10:35:54;;;;;;;5.82;3.03;;;;;;;32.95;30.14;98685.72;4479727;32;20457;-71
2022/07/29 10:38:51;;;;;;;7.75;3.42;;;;;;;33.12;28.75;98681.75;4480037;32;20486;-71
2022/07/29 10:41:27;;;;;;;4.12;3.37;;;;;;;32.99;28.45;98678.62;4480916;31;20096;-71
2022/07/29 10:44:01;;;;;;;8.05;3.20;;;;;;;33.56;29.31;98675.28;4479590;32;20274;-71
2022/07/29 10:46:35;;;;;;;6.65;3.45;;;;;;;33.97;27.51;98668.53;4481707;31;20861;-71
2022/07/29 10:49:18;;;;;;;4.80;3.87;;;;;;;33.78;27.71;98667.41;4481710;31;20429;-70
2022/07/29 10:52:01;;;;;;;3.58;3.00;;;;;;;33.48;27.86;98676.75;4483410;31;20092;-70
2022/07/29 10:54:35;;;;;;;8.02;3.70;;;;;;;32.95;28.56;98674.87;4483180;31;20093;-71
2022/07/29 10:57:22;;;;;;;6.62;3.80;;;;;;;32.68;29.30;98672.69;4481455;32;20402;-71
2022/07/29 11:00:13;;;;;;;4.30;3.40;;;;;;;32.69;29.20;98677.81;4484244;31;20131;-71
2022/07/29 11:02:44;;;;;;;4.40;3.70;;;;;;;33.32;28.46;98673.38;4484524;31;20088;-71
2022/07/29 11:05:18;;;;;;;5.85;3.25;;;;;;;33.33;27.85;98666.06;4484611;31;20474;-71
2022/07/29 11:08:13;;;;;;;8.15;3.62;;;;;;;33.67;27.41;98662.38;4484366;31;20084;-71
2022/07/29 11:10:48;;;;;;;4.80;3.40;;;;;;;33.86;28.10;98659.72;4484587;31;20115;-72
2022/07/29 11:13:45;;;;;;;3.78;3.30;;;;;;;33.88;28.33;98646.63;4468491;32;20089;-71
2022/07/29 11:16:15;;;;;;;10.90;3.55;;;;;;;34.25;27.85;98647.75;4468706;32;20089;-71
2022/07/29 11:19:10;;;;;;;5.55;3.37;;;;;;;33.97;27.59;98650.28;4468619;32;20088;-71
2022/07/29 11:21:47;;;;;;;3.95;2.90;;;;;;;33.84;26.79;98648.31;4468137;32;20448;-71
2022/07/29 11:24:27;;;;;;;9.82;3.17;;;;;;;34.28;26.35;98628.91;4468073;32;20584;-71
2022/07/29 11:27:13;;;;;;;6.25;3.37;;;;;;;34.15;26.87;98637.78;4468061;32;20114;-71
2022/07/29 11:29:51;;;;;;;8.52;3.50;;;;;;;34.27;27.11;98627.28;4468505;32;20085;-70
2022/07/29 11:32:20;;;;;;;3.45;3.12;;;;;;;34.02;27.90;98630.38;4468233;32;20127;-70
2022/07/29 11:35:10;;;;;;;21.20;3.95;;;;;;;34.19;27.77;98624.41;4468156;32;20101;-71
2022/07/29 11:38:25;;;;;;;5.10;3.62;;;;;;;34.09;27.47;98628.91;4468428;32;20176;-72
2022/07/29 11:41:23;;;;;;;3.95;3.33;;;;;;;34.45;26.89;98622.09;4468287;32;20081;-72
2022/07/29 11:43:55;;;;;;;6.57;3.03;;;;;;;34.82;25.63;98620.38;4468154;32;20100;-72
2022/07/29 11:46:48;;;;;;;8.73;3.20;;;;;;;34.19;27.00;98616.25;4468431;32;20449;-72
2022/07/29 11:49:23;;;;;;;4.82;2.90;;;;;;;33.69;26.78;98616.69;4468550;32;20419;-72
2022/07/29 11:52:00;;;;;;;;;;;;;;;33.00;27.78;98615.09;4468627;32;20768;-72
2022/07/29 11:54:34;;;;;;;5.40;3.30;;;;;;;32.60;28.42;98613.59;4468288;32;19991;-72
2022/07/29 11:57:22;;;;;;;5.95;3.60;;;;;;;32.51;30.03;98613.41;4468611;32;20093;-72
2022/07/29 12:00:07;;;;;;;6.30;3.50;;;;;;;31.76;31.96;98615.28;4470807;32;20153;-72